Time;durP1;ratioP1;P1;durP2;ratioP2;P2;SDS_P1;SDS_P2;PMS_P1;PMS_P2;Temp;Humidity;BMP_temperature;BMP_pressure;BME280_temperature;BME280_humidity;BME280_pressure;Samples;Min_cycle;Max_cycle;Signal;HPM_P1;HPM_P2
2022/09/11 00:01:54;;;;;;;17.30;13.40;;;;;;;12.57;84.49;98347.89;88463;1276;24225;-72
2022/09/11 00:03:56;;;;;;;20.50;13.20;;;;;;;12.57;84.48;98349.12;88354;1276;23671;-70
2022/09/11 00:06:07;;;;;;;23.80;13.90;;;;;;;12.57;84.64;98349.12;88468;1276;99738;-72
2022/09/11 00:08:15;;;;;;;20.50;13.80;;;;;;;12.57;84.59;98353.37;88540;1276;26047;-72
2022/09/11 00:10:17;;;;;;;17.40;12.50;;;;;;;12.57;84.71;98358.10;88844;1277;22601;-72
2022/09/11 00:12:21;;;;;;;20.10;12.60;;;;;;;12.56;84.73;98350.21;88243;1276;99461;-71
2022/09/11 00:14:26;;;;;;;16.30;13.20;;;;;;;12.57;84.70;98346.98;88730;1274;25568;-72
2022/09/11 00:16:33;;;;;;;15.20;12.60;;;;;;;12.57;84.56;98340.80;88294;1276;22636;-72
2022/09/11 00:18:35;;;;;;;15.10;13.20;;;;;;;12.58;84.72;98337.42;88439;1276;98346;-72
2022/09/11 00:20:37;;;;;;;18.60;13.50;;;;;;;12.60;84.72;98336.42;88330;1276;22615;-73
2022/09/11 00:22:39;;;;;;;28.60;14.20;;;;;;;12.61;84.74;98334.58;88289;1276;25269;-72
2022/09/11 00:24:40;;;;;;;18.90;13.90;;;;;;;12.63;84.69;98338.70;88425;1274;100929;-72
2022/09/11 00:26:43;;;;;;;15.40;13.20;;;;;;;12.63;84.77;98342.02;88534;1275;22693;-71
2022/09/11 00:28:49;;;;;;;19.20;13.10;;;;;;;12.64;84.66;98341.64;88410;1276;25305;-72
2022/09/11 00:31:11;;;;;;;17.80;13.80;;;;;;;12.64;84.74;98345.32;88430;1276;99353;-72
2022/09/11 00:33:15;;;;;;;21.00;13.40;;;;;;;12.65;84.82;98344.73;88349;1276;24224;-71
2022/09/11 00:35:17;;;;;;;22.90;13.70;;;;;;;12.64;84.83;98337.89;88454;1274;98420;-72
2022/09/11 00:37:18;;;;;;;20.10;14.30;;;;;;;12.63;84.78;98337.10;88465;1276;24377;-72
2022/09/11 00:39:20;;;;;;;40.30;13.80;;;;;;;12.65;84.72;98341.20;88389;1274;23316;-70
2022/09/11 00:41:27;;;;;;;34.60;14.30;;;;;;;12.64;84.67;98335.41;88279;1276;99579;-71
2022/09/11 00:44:09;;;;;;;18.60;14.70;;;;;;;12.64;84.56;98333.85;88272;1276;22698;-73
2022/09/11 00:46:11;;;;;;;27.10;15.50;;;;;;;12.64;84.74;98341.42;88036;1282;22530;-73
2022/09/11 00:48:19;;;;;;;22.80;15.30;;;;;;;12.64;84.92;98338.98;88013;1281;99318;-72
2022/09/11 00:50:24;;;;;;;19.00;15.10;;;;;;;12.63;84.83;98339.02;87827;1285;24703;-72
2022/09/11 00:52:36;;;;;;;18.60;14.90;;;;;;;12.64;84.90;98337.23;88003;1282;22643;-75
2022/09/11 00:54:49;;;;;;;21.40;16.00;;;;;;;12.63;84.92;98337.08;87835;1283;99295;-73
2022/09/11 00:56:52;;;;;;;24.40;16.50;;;;;;;12.63;84.93;98332.84;87995;1282;23469;-72
2022/09/11 00:58:56;;;;;;;25.20;16.00;;;;;;;12.64;85.11;98336.33;87908;1284;22877;-73
2022/09/11 01:00:57;;;;;;;24.80;15.00;;;;;;;12.64;84.99;98334.73;87970;1282;100023;-73
2022/09/11 01:02:59;;;;;;;20.90;16.10;;;;;;;12.64;84.96;98333.14;88034;1281;22585;-73
2022/09/11 01:05:03;;;;;;;23.20;16.30;;;;;;;12.64;85.04;98335.08;87882;1284;24039;-72
2022/09/11 01:07:05;;;;;;;22.00;16.80;;;;;;;12.65;84.96;98336.10;87918;1284;99867;-72
2022/09/11 01:09:08;;;;;;;25.50;17.60;;;;;;;12.65;84.97;98336.26;87821;1282;22587;-72
2022/09/11 01:11:48;;;;;;;23.70;17.40;;;;;;;12.64;84.98;98334.04;88077;1283;24079;-73
2022/09/11 01:14:04;;;;;;;35.50;17.70;;;;;;;12.65;85.00;98337.12;87876;1283;25447;-73
2022/09/11 01:16:38;;;;;;;28.90;18.90;;;;;;;12.64;84.98;98337.57;88051;1282;22569;-72
2022/09/11 01:19:12;;;;;;;23.50;17.40;;;;;;;12.64;85.11;98334.91;88010;1281;99377;-71
2022/09/11 01:21:23;;;;;;;30.90;19.00;;;;;;;12.65;85.02;98335.20;87912;1282;23286;-72
2022/09/11 01:24:00;;;;;;;31.80;19.40;;;;;;;12.65;85.13;98331.30;88078;1280;99426;-73
2022/09/11 01:26:23;;;;;;;32.50;20.10;;;;;;;12.66;85.03;98329.66;87885;1282;22593;-73
2022/09/11 01:28:34;;;;;;;25.10;19.60;;;;;;;12.69;85.14;98330.19;87895;1282;25401;-73
2022/09/11 01:30:46;;;;;;;23.70;18.80;;;;;;;12.70;85.18;98328.89;87580;1287;99549;-72
2022/09/11 01:33:17;;;;;;;32.40;19.80;;;;;;;12.72;85.25;98328.40;87896;1282;24343;-71
2022/09/11 01:36:14;;;;;;;31.80;19.60;;;;;;;12.73;85.06;98333.74;87718;1284;99204;-73
2022/09/11 01:38:37;;;;;;;37.40;23.00;;;;;;;12.75;85.13;98335.91;87117;1290;22570;-73
2022/09/11 01:40:55;;;;;;;25.50;18.90;;;;;;;12.76;85.13;98328.10;87155;1290;24079;-72
2022/09/11 01:43:05;;;;;;;30.40;19.60;;;;;;;12.77;85.15;98320.27;86985;1290;99431;-73
2022/09/11 01:45:11;;;;;;;28.60;20.90;;;;;;;12.79;85.25;98324.20;86989;1291;22911;-71
2022/09/11 01:47:15;;;;;;;30.40;19.90;;;;;;;12.81;85.23;98321.25;87295;1290;23956;-75
2022/09/11 01:49:19;;;;;;;30.20;19.10;;;;;;;12.82;85.07;98324.73;87208;1290;22836;-76
2022/09/11 01:51:27;;;;;;;40.10;20.00;;;;;;;12.83;85.25;98324.69;87129;1289;25468;-74
2022/09/11 01:53:36;;;;;;;23.50;19.00;;;;;;;12.83;85.22;98319.35;87064;1290;99170;-73
2022/09/11 01:55:56;;;;;;;33.10;18.20;;;;;;;12.85;85.12;98320.96;87129;1290;23940;-71
2022/09/11 01:58:05;;;;;;;19.70;17.20;;;;;;;12.86;85.19;98321.48;87139;1293;22618;-74
2022/09/11 02:00:13;;;;;;;28.10;17.50;;;;;;;12.86;85.20;98318.45;87135;1290;99473;-72
2022/09/11 02:02:21;;;;;;;25.40;16.40;;;;;;;12.86;85.18;98315.96;87182;1285;25281;-72
2022/09/11 02:04:29;;;;;;;22.70;16.20;;;;;;;12.86;85.30;98314.05;88026;1282;22577;-72
2022/09/11 02:06:36;;;;;;;25.90;15.80;;;;;;;12.85;85.22;98313.74;87735;1285;99575;-72
2022/09/11 02:08:57;;;;;;;24.30;16.50;;;;;;;12.85;85.28;98312.73;87729;1285;22573;-74
2022/09/11 02:11:07;;;;;;;24.10;16.90;;;;;;;12.85;85.29;98309.51;87921;1285;25427;-71
2022/09/11 02:13:24;;;;;;;28.00;19.10;;;;;;;12.85;85.44;98310.08;88085;1276;99181;-72
2022/09/11 02:15:35;;;;;;;31.20;19.60;;;;;;;12.86;85.19;98309.09;87307;1276;22583;-74
2022/09/11 02:18:00;;;;;;;32.70;20.50;;;;;;;12.87;85.45;98304.27;88296;1275;99422;-72
2022/09/11 02:20:04;;;;;;;33.60;19.40;;;;;;;12.88;85.37;98300.54;88336;1276;22654;-72
2022/09/11 02:22:06;;;;;;;26.30;19.90;;;;;;;12.89;85.42;98297.81;88488;1276;22936;-72
2022/09/11 02:24:09;;;;;;;30.50;21.30;;;;;;;12.89;85.29;98296.59;88076;1277;99406;-72
2022/09/11 02:26:13;;;;;;;40.70;23.10;;;;;;;12.89;85.26;98296.21;88263;1277;25488;-71
2022/09/11 02:28:16;;;;;;;40.30;24.70;;;;;;;12.90;85.37;98294.19;88345;1276;23462;-72
2022/09/11 02:30:18;;;;;;;35.40;24.40;;;;;;;12.90;85.42;98290.83;88180;1279;99122;-71
2022/09/11 02:32:21;;;;;;;41.80;24.70;;;;;;;12.92;85.43;98287.52;88212;1276;22584;-72
2022/09/11 02:34:33;;;;;;;47.20;24.20;;;;;;;12.93;85.45;98292.36;88257;1276;24800;-71
2022/09/11 02:37:02;;;;;;;30.30;21.80;;;;;;;12.94;85.43;98289.68;88039;1278;99462;-72
2022/09/11 02:39:14;;;;;;;35.50;22.70;;;;;;;12.95;85.22;98285.02;88080;1276;23164;-71
2022/09/11 02:41:22;;;;;;;32.70;22.70;;;;;;;12.95;85.30;98287.86;88316;1276;22671;-72
2022/09/11 02:43:59;;;;;;;39.60;24.40;;;;;;;12.96;85.47;98286.74;88166;1276;24386;-72
2022/09/11 02:46:33;;;;;;;46.30;24.50;;;;;;;12.97;85.55;98285.64;87698;1283;22672;-73
2022/09/11 02:48:59;;;;;;;35.30;25.40;;;;;;;12.97;85.55;98283.99;87557;1282;98345;-74
2022/09/11 02:51:31;;;;;;;39.30;24.90;;;;;;;12.99;85.42;98286.02;87695;1284;24240;-72
2022/09/11 02:54:07;;;;;;;43.90;26.30;;;;;;;12.99;85.41;98281.25;87633;1282;99661;-71
2022/09/11 02:56:15;;;;;;;46.70;27.30;;;;;;;13.00;85.49;98280.13;87633;1285;22636;-71
2022/09/11 02:58:25;;;;;;;42.60;29.20;;;;;;;13.01;85.36;98281.78;87749;1282;24275;-70
2022/09/11 03:00:27;;;;;;;53.50;29.80;;;;;;;13.03;85.32;98282.75;87647;1282;99706;-71
2022/09/11 03:02:36;;;;;;;51.00;29.90;;;;;;;13.04;85.39;98277.72;87661;1284;23002;-71
2022/09/11 03:04:38;;;;;;;42.00;26.70;;;;;;;13.04;85.40;98277.88;87779;1284;22612;-71
2022/09/11 03:06:42;;;;;;;35.90;26.80;;;;;;;13.05;85.52;98278.48;87591;1284;99338;-71
2022/09/11 03:08:43;;;;;;;39.60;25.20;;;;;;;13.06;85.55;98287.11;87862;1285;22731;-73
2022/09/11 03:10:45;;;;;;;38.90;25.50;;;;;;;13.06;85.41;98287.96;87706;1284;24790;-71
2022/09/11 03:12:47;;;;;;;34.20;25.20;;;;;;;13.06;85.33;98285.45;87624;1282;99513;-71
2022/09/11 03:14:48;;;;;;;38.00;26.50;;;;;;;13.07;85.50;98285.77;87760;1282;22569;-72
2022/09/11 03:16:50;;;;;;;36.90;27.80;;;;;;;13.06;85.49;98286.52;87726;1284;26685;-72
2022/09/11 03:18:52;;;;;;;49.60;29.60;;;;;;;13.06;85.33;98285.50;87644;1284;99747;-71
2022/09/11 03:20:53;;;;;;;54.30;31.10;;;;;;;13.05;85.45;98288.38;87425;1287;22625;-70
2022/09/11 03:22:55;;;;;;;51.80;35.10;;;;;;;13.04;85.37;98287.77;87892;1279;23217;-71
2022/09/11 03:24:56;;;;;;;64.00;38.40;;;;;;;13.04;85.28;98289.89;88171;1276;99295;-73
2022/09/11 03:26:58;;;;;;;58.60;38.50;;;;;;;13.03;85.43;98288.52;88295;1276;23463;-71
2022/09/11 03:29:00;;;;;;;61.50;38.60;;;;;;;13.03;85.51;98292.44;88208;1276;24242;-71
2022/09/11 03:31:01;;;;;;;65.20;40.00;;;;;;;13.02;85.34;98292.67;88110;1276;99341;-72
2022/09/11 03:33:03;;;;;;;69.70;42.60;;;;;;;13.01;85.40;98290.64;88136;1277;22647;-71
2022/09/11 03:35:05;;;;;;;64.60;42.60;;;;;;;13.00;85.44;98290.35;88245;1276;22616;-72
2022/09/11 03:37:07;;;;;;;69.60;47.10;;;;;;;12.99;85.43;98286.67;88197;1276;101001;-71
2022/09/11 03:39:09;;;;;;;76.70;49.10;;;;;;;12.99;85.36;98289.52;88222;1276;22750;-71
2022/09/11 03:41:11;;;;;;;73.30;50.40;;;;;;;12.99;85.46;98291.83;88184;1276;22732;-70
2022/09/11 03:43:15;;;;;;;76.00;51.40;;;;;;;12.98;85.50;98289.73;88138;1276;98757;-72
2022/09/11 03:45:17;;;;;;;81.00;51.70;;;;;;;12.98;85.42;98292.81;88307;1277;22657;-72
2022/09/11 03:47:21;;;;;;;75.10;50.00;;;;;;;12.97;85.34;98294.75;88257;1276;99647;-72
2022/09/11 03:49:23;;;;;;;71.30;45.70;;;;;;;12.96;85.28;98295.71;88099;1278;25272;-73
2022/09/11 03:51:25;;;;;;;60.50;41.30;;;;;;;12.96;85.52;98298.15;88233;1276;22799;-72
2022/09/11 03:53:27;;;;;;;50.80;36.20;;;;;;;12.96;85.42;98299.22;88177;1275;99556;-70
2022/09/11 03:55:30;;;;;;;53.90;33.40;;;;;;;12.95;85.38;98299.50;88196;1279;22805;-71
2022/09/11 03:57:32;;;;;;;52.40;31.70;;;;;;;12.93;85.39;98295.73;88278;1276;25253;-70
2022/09/11 03:59:34;;;;;;;49.90;33.00;;;;;;;12.93;85.37;98296.77;88418;1276;100362;-72
2022/09/11 04:01:36;;;;;;;49.00;31.30;;;;;;;12.93;85.48;98299.45;88488;1276;27666;-71
2022/09/11 04:03:39;;;;;;;45.60;33.00;;;;;;;12.93;85.55;98296.12;88414;1276;22617;-72
2022/09/11 04:05:43;;;;;;;43.70;30.30;;;;;;;12.92;85.51;98298.30;88062;1279;100181;-70
2022/09/11 04:07:44;;;;;;;43.80;31.10;;;;;;;12.91;85.45;98299.56;88525;1276;22645;-72
2022/09/11 04:09:46;;;;;;;46.30;31.40;;;;;;;12.90;85.26;98298.39;88245;1276;22601;-72
2022/09/11 04:11:47;;;;;;;45.80;30.70;;;;;;;12.90;85.40;98298.05;88076;1276;98294;-70
2022/09/11 04:13:50;;;;;;;39.90;28.90;;;;;;;12.89;85.46;98304.45;88170;1276;22699;-72
2022/09/11 04:15:51;;;;;;;31.90;26.80;;;;;;;12.88;85.61;98304.56;88222;1276;23508;-72
2022/09/11 04:17:54;;;;;;;33.70;25.30;;;;;;;12.86;85.35;98306.08;88132;1276;99821;-72
2022/09/11 04:19:56;;;;;;;35.00;26.90;;;;;;;12.85;85.28;98303.52;88348;1276;23630;-72
2022/09/11 04:21:58;;;;;;;33.60;26.30;;;;;;;12.85;85.52;98303.00;88178;1276;22713;-72
2022/09/11 04:24:01;;;;;;;33.70;24.90;;;;;;;12.85;85.44;98305.27;88044;1278;100985;-73
2022/09/11 04:26:14;;;;;;;34.80;25.30;;;;;;;12.85;85.31;98304.59;88164;1276;22648;-73
2022/09/11 04:28:16;;;;;;;28.90;22.90;;;;;;;12.84;85.40;98304.65;88163;1276;25428;-72
2022/09/11 04:30:18;;;;;;;36.60;23.30;;;;;;;12.83;85.53;98305.94;88113;1276;99448;-72
2022/09/11 04:32:21;;;;;;;27.50;22.40;;;;;;;12.84;85.60;98304.87;88189;1276;25616;-72
2022/09/11 04:34:24;;;;;;;32.10;22.80;;;;;;;12.83;85.52;98303.88;88133;1276;22554;-73
2022/09/11 04:36:25;;;;;;;29.80;22.90;;;;;;;12.83;85.23;98305.96;88134;1276;98805;-72
2022/09/11 04:38:27;;;;;;;29.50;23.20;;;;;;;12.83;85.35;98304.58;88182;1276;22626;-70
2022/09/11 04:40:29;;;;;;;29.00;22.50;;;;;;;12.83;85.48;98301.88;88089;1276;22658;-72
2022/09/11 04:42:30;;;;;;;32.40;25.20;;;;;;;12.85;85.58;98304.07;88050;1276;99464;-72
2022/09/11 04:44:32;;;;;;;26.20;22.20;;;;;;;12.85;85.58;98304.58;88220;1276;22799;-72
2022/09/11 04:46:33;;;;;;;32.80;24.30;;;;;;;12.85;85.36;98299.99;88212;1276;26616;-72
2022/09/11 04:48:38;;;;;;;38.70;24.70;;;;;;;12.86;85.48;98304.86;88144;1276;99291;-72
2022/09/11 04:50:40;;;;;;;34.40;24.00;;;;;;;12.87;85.49;98307.66;88034;1281;22689;-72
2022/09/11 04:52:43;;;;;;;30.00;23.90;;;;;;;12.87;85.36;98303.53;88257;1276;22723;-73
2022/09/11 04:54:45;;;;;;;41.50;25.80;;;;;;;12.87;85.48;98301.77;88157;1276;100776;-73
2022/09/11 04:56:47;;;;;;;39.50;24.80;;;;;;;12.88;85.56;98307.00;88225;1276;25386;-72
2022/09/11 04:59:01;;;;;;;36.00;25.60;;;;;;;12.88;85.49;98301.88;88263;1276;22674;-74
2022/09/11 05:01:10;;;;;;;31.60;24.20;;;;;;;12.89;85.58;98304.29;88981;1277;99511;-71
2022/09/11 05:03:11;;;;;;;34.10;25.00;;;;;;;12.90;85.45;98307.22;88159;1279;24314;-71
2022/09/11 05:05:13;;;;;;;31.30;23.70;;;;;;;12.92;85.52;98304.83;88252;1276;25329;-72
2022/09/11 05:07:15;;;;;;;33.80;25.70;;;;;;;12.92;85.56;98299.83;88028;1279;99391;-73
2022/09/11 05:09:17;;;;;;;33.50;25.00;;;;;;;12.93;85.54;98296.42;88146;1279;22709;-72
2022/09/11 05:11:19;;;;;;;34.90;25.30;;;;;;;12.94;85.55;98298.83;88046;1279;22579;-72
2022/09/11 05:13:22;;;;;;;36.80;27.80;;;;;;;12.95;85.47;98294.17;88006;1278;99334;-73
2022/09/11 05:15:24;;;;;;;41.80;28.80;;;;;;;12.98;85.67;98299.13;88090;1279;22795;-73
2022/09/11 05:17:25;;;;;;;43.60;28.00;;;;;;;12.99;85.77;98298.50;88008;1279;99594;-70
2022/09/11 05:19:27;;;;;;;48.30;29.20;;;;;;;13.00;85.61;98294.21;87997;1279;22773;-71
2022/09/11 05:21:30;;;;;;;43.30;29.70;;;;;;;13.01;85.55;98293.63;88051;1279;22633;-72
2022/09/11 05:23:33;;;;;;;38.10;29.70;;;;;;;13.03;85.80;98296.13;87969;1281;100738;-72
2022/09/11 05:25:35;;;;;;;42.90;27.80;;;;;;;13.05;85.60;98295.30;88223;1276;22679;-72
2022/09/11 05:27:37;;;;;;;35.90;27.40;;;;;;;13.07;85.73;98294.44;88263;1279;23404;-72
2022/09/11 05:29:40;;;;;;;41.20;30.50;;;;;;;13.08;85.59;98291.57;88146;1279;99739;-71
2022/09/11 05:31:42;;;;;;;44.60;31.80;;;;;;;13.09;85.61;98297.41;88002;1278;26544;-72
2022/09/11 05:33:44;;;;;;;43.90;31.40;;;;;;;13.13;85.81;98297.05;88128;1279;26245;-73
2022/09/11 05:35:46;;;;;;;42.20;30.70;;;;;;;13.14;85.78;98297.18;88154;1276;108499;-72
2022/09/11 05:37:48;;;;;;;50.90;31.60;;;;;;;13.15;85.79;98302.73;88113;1278;22933;-70
2022/09/11 05:39:50;;;;;;;43.50;31.20;;;;;;;13.17;85.62;98302.41;88196;1276;24269;-70
2022/09/11 05:41:54;;;;;;;44.00;30.80;;;;;;;13.18;85.72;98304.97;87940;1279;99297;-72
2022/09/11 05:43:57;;;;;;;47.70;30.90;;;;;;;13.19;85.82;98303.45;88192;1279;22679;-72
2022/09/11 05:45:59;;;;;;;50.30;31.90;;;;;;;13.21;85.78;98301.79;88050;1279;25577;-72
2022/09/11 05:48:02;;;;;;;48.60;32.20;;;;;;;13.21;85.86;98297.36;87953;1279;100338;-72
2022/09/11 05:50:06;;;;;;;51.40;33.60;;;;;;;13.24;85.72;98300.83;88117;1276;22586;-71
2022/09/11 05:52:08;;;;;;;43.60;32.20;;;;;;;13.25;85.72;98298.80;88086;1276;22559;-70
2022/09/11 05:54:10;;;;;;;48.50;30.50;;;;;;;13.27;85.67;98303.63;88019;1278;99493;-71
2022/09/11 05:56:17;;;;;;;47.10;32.60;;;;;;;13.28;85.55;98307.28;88210;1276;23429;-70
2022/09/11 05:58:20;;;;;;;52.00;33.30;;;;;;;13.29;85.59;98310.70;88183;1276;24230;-70
2022/09/11 06:00:22;;;;;;;47.70;33.60;;;;;;;13.31;85.63;98307.80;87962;1278;99336;-73
2022/09/11 06:02:23;;;;;;;46.90;32.60;;;;;;;13.33;85.75;98305.89;88124;1277;22684;-71
2022/09/11 06:04:26;;;;;;;45.80;33.50;;;;;;;13.28;85.53;98298.11;88216;1276;24236;-72
2022/09/11 06:06:30;;;;;;;47.30;33.50;;;;;;;13.35;85.43;98307.15;88162;1279;100681;-70
2022/09/11 06:08:33;;;;;;;48.20;34.60;;;;;;;13.36;85.47;98305.33;88166;1279;22767;-71
2022/09/11 06:10:36;;;;;;;43.40;32.80;;;;;;;13.38;85.60;98306.24;88664;1276;22588;-72
2022/09/11 06:12:38;;;;;;;45.20;34.30;;;;;;;13.40;85.68;98304.00;88028;1277;99682;-74
2022/09/11 06:14:43;;;;;;;43.60;31.60;;;;;;;13.41;85.64;98306.36;88061;1279;25670;-72
2022/09/11 06:16:45;;;;;;;45.50;34.10;;;;;;;13.43;85.53;98306.06;88075;1279;25270;-73
2022/09/11 06:18:48;;;;;;;44.30;32.70;;;;;;;13.47;85.61;98305.30;87996;1280;102708;-70
2022/09/11 06:21:02;;;;;;;38.70;31.00;;;;;;;13.51;85.78;98307.50;87827;1281;25301;-72
2022/09/11 06:23:04;;;;;;;40.30;31.90;;;;;;;13.54;85.91;98310.06;88686;1279;25373;-72
2022/09/11 06:25:06;;;;;;;44.70;31.60;;;;;;;13.57;85.82;98309.67;88086;1278;101581;-72
2022/09/11 06:27:09;;;;;;;39.50;32.50;;;;;;;13.61;85.63;98310.98;88172;1279;25483;-73
2022/09/11 06:29:13;;;;;;;35.10;29.30;;;;;;;13.65;85.48;98313.01;88100;1279;22779;-70
2022/09/11 06:31:18;;;;;;;39.20;28.40;;;;;;;13.69;85.73;98310.60;88513;1278;100525;-71
2022/09/11 06:33:20;;;;;;;40.90;29.00;;;;;;;13.73;85.71;98304.33;90422;1276;22550;-73
2022/09/11 06:35:22;;;;;;;33.80;29.40;;;;;;;13.75;85.58;98299.19;87962;1279;101160;-73
2022/09/11 06:37:24;;;;;;;39.40;28.40;;;;;;;13.79;85.40;98299.98;88065;1279;22743;-72
2022/09/11 06:39:26;;;;;;;37.10;28.40;;;;;;;13.83;85.48;98300.98;88062;1276;22597;-73
2022/09/11 06:41:27;;;;;;;34.70;27.50;;;;;;;13.85;85.50;98296.55;88068;1276;99748;-73
2022/09/11 06:43:31;;;;;;;37.80;25.80;;;;;;;13.87;85.65;98295.35;88198;1276;22598;-73
2022/09/11 06:45:32;;;;;;;28.90;25.70;;;;;;;13.89;85.56;98296.43;88182;1279;22675;-73
2022/09/11 06:47:34;;;;;;;32.10;25.30;;;;;;;13.92;85.31;98293.43;88017;1277;100577;-73
2022/09/11 06:49:35;;;;;;;31.80;25.90;;;;;;;13.95;85.63;98296.70;88073;1279;22746;-73
2022/09/11 06:51:38;;;;;;;28.20;22.00;;;;;;;13.98;85.40;98300.00;88107;1279;23086;-73
2022/09/11 06:53:41;;;;;;;27.80;21.80;;;;;;;14.01;85.55;98305.65;87996;1279;100179;-72
2022/09/11 06:55:43;;;;;;;23.90;21.10;;;;;;;14.04;85.23;98307.04;88237;1276;22644;-73
2022/09/11 06:57:45;;;;;;;22.70;20.30;;;;;;;14.05;85.21;98304.98;88183;1279;22859;-73
2022/09/11 06:59:48;;;;;;;24.10;21.50;;;;;;;14.07;85.50;98303.11;87998;1276;99520;-74
2022/09/11 07:01:51;;;;;;;26.90;22.50;;;;;;;14.09;85.23;98300.58;88555;1279;25367;-72
2022/09/11 07:03:54;;;;;;;24.50;20.80;;;;;;;14.12;85.37;98297.23;88183;1276;26030;-73
2022/09/11 07:05:56;;;;;;;24.10;21.60;;;;;;;14.15;85.29;98295.78;88051;1277;99860;-72
2022/09/11 07:07:57;;;;;;;30.50;22.10;;;;;;;14.18;85.23;98297.85;88041;1279;22682;-71
2022/09/11 07:10:01;;;;;;;22.50;19.80;;;;;;;14.21;85.43;98297.84;88217;1276;22611;-73
2022/09/11 07:12:04;;;;;;;26.50;20.20;;;;;;;14.24;85.11;98293.90;88009;1276;99480;-71
2022/09/11 07:14:06;;;;;;;26.70;21.90;;;;;;;14.28;85.20;98291.15;88217;1278;22630;-73
2022/09/11 07:16:12;;;;;;;26.30;21.10;;;;;;;14.31;85.16;98293.86;88215;1276;23848;-72
2022/09/11 07:18:14;;;;;;;21.80;19.20;;;;;;;14.34;85.17;98293.14;88109;1276;99928;-73
2022/09/11 07:20:16;;;;;;;25.20;21.50;;;;;;;14.35;85.14;98294.28;88165;1276;22720;-72
2022/09/11 07:22:18;;;;;;;24.90;21.90;;;;;;;14.36;85.11;98295.16;88208;1276;23161;-72
2022/09/11 07:24:20;;;;;;;27.00;20.80;;;;;;;14.36;84.92;98296.88;88152;1279;99517;-73
2022/09/11 07:26:25;;;;;;;25.00;20.40;;;;;;;14.37;84.89;98302.15;88078;1279;24229;-72
2022/09/11 07:28:27;;;;;;;24.00;21.40;;;;;;;14.35;84.80;98302.27;88862;1276;22607;-73
2022/09/11 07:30:31;;;;;;;24.60;21.50;;;;;;;14.36;84.84;98301.66;88032;1276;99457;-71
2022/09/11 07:32:36;;;;;;;29.60;22.50;;;;;;;14.37;84.97;98302.64;88228;1276;26721;-72
2022/09/11 07:34:38;;;;;;;24.80;21.40;;;;;;;14.38;84.87;98300.80;88207;1278;22738;-72
2022/09/11 07:36:40;;;;;;;26.10;23.30;;;;;;;14.37;84.83;98301.54;88037;1276;99500;-73
2022/09/11 07:38:44;;;;;;;25.50;22.90;;;;;;;14.36;84.82;98299.69;88251;1277;25428;-72
2022/09/11 07:40:46;;;;;;;29.00;23.00;;;;;;;14.35;84.83;98304.73;88755;1276;22573;-73
2022/09/11 07:42:47;;;;;;;26.40;22.50;;;;;;;14.34;84.66;98304.83;87934;1279;100127;-72
2022/09/11 07:44:49;;;;;;;22.60;20.00;;;;;;;14.32;84.66;98304.28;88141;1279;22609;-73
2022/09/11 07:46:51;;;;;;;24.80;22.00;;;;;;;14.29;84.70;98305.35;88224;1278;22713;-71
2022/09/11 07:48:54;;;;;;;24.80;21.10;;;;;;;14.28;84.53;98306.86;88133;1276;99707;-72
2022/09/11 07:51:01;;;;;;;26.00;20.40;;;;;;;14.26;84.63;98305.91;88206;1277;22581;-72
2022/09/11 07:53:02;;;;;;;23.50;21.00;;;;;;;14.26;84.78;98304.90;88177;1277;25558;-72
2022/09/11 07:55:06;;;;;;;24.10;21.40;;;;;;;14.25;84.71;98303.52;88010;1279;99904;-72
2022/09/11 07:57:07;;;;;;;23.50;21.00;;;;;;;14.26;84.77;98308.23;88196;1278;23849;-73
2022/09/11 07:59:10;;;;;;;24.60;21.20;;;;;;;14.27;84.88;98308.00;88327;1276;22580;-74
2022/09/11 08:01:17;;;;;;;25.20;20.30;;;;;;;14.28;84.85;98312.53;87999;1279;100015;-73
2022/09/11 08:03:18;;;;;;;22.80;20.00;;;;;;;14.29;84.72;98316.12;88895;1276;25259;-73
2022/09/11 08:05:20;;;;;;;23.30;20.80;;;;;;;14.31;84.79;98315.83;88277;1278;22608;-74
2022/09/11 08:07:21;;;;;;;29.00;21.00;;;;;;;14.31;84.82;98315.11;88624;1279;99711;-74
2022/09/11 08:09:25;;;;;;;23.70;20.70;;;;;;;14.31;84.56;98315.30;88162;1278;24166;-72
2022/09/11 08:11:30;;;;;;;26.40;19.90;;;;;;;14.32;84.58;98316.44;88237;1278;24250;-73
2022/09/11 08:13:33;;;;;;;21.90;19.70;;;;;;;14.33;84.82;98319.70;88113;1278;22644;-73
2022/09/11 08:15:34;;;;;;;33.30;19.80;;;;;;;14.34;84.73;98320.20;88110;1281;25854;-74
2022/09/11 08:17:36;;;;;;;25.90;21.00;;;;;;;14.31;84.76;98319.47;88119;1276;99598;-74
2022/09/11 08:19:38;;;;;;;20.40;17.40;;;;;;;14.33;84.56;98320.64;88297;1276;24167;-72
2022/09/11 08:21:39;;;;;;;19.90;16.30;;;;;;;14.31;84.88;98318.08;88138;1276;23327;-73
2022/09/11 08:23:43;;;;;;;20.00;17.10;;;;;;;14.29;84.85;98316.33;88209;1277;100488;-72
2022/09/11 08:25:45;;;;;;;22.30;17.90;;;;;;;14.28;84.70;98316.38;88516;1278;22727;-71
2022/09/11 08:27:47;;;;;;;19.50;17.50;;;;;;;14.27;84.81;98320.35;88160;1280;24274;-71
2022/09/11 08:29:50;;;;;;;19.50;16.20;;;;;;;14.25;84.78;98319.26;88078;1279;98749;-71
2022/09/11 08:31:51;;;;;;;22.10;16.80;;;;;;;14.22;84.73;98319.29;88240;1276;22596;-72
2022/09/11 08:33:54;;;;;;;17.60;16.00;;;;;;;14.20;84.90;98321.79;88298;1277;23237;-71
2022/09/11 08:35:57;;;;;;;19.80;15.70;;;;;;;14.17;84.91;98325.20;88267;1276;98264;-71
2022/09/11 08:37:59;;;;;;;15.90;14.50;;;;;;;14.14;84.77;98324.11;88244;1278;24823;-72
2022/09/11 08:40:01;;;;;;;17.90;15.10;;;;;;;14.12;85.13;98325.17;88230;1276;22761;-72
2022/09/11 08:42:12;;;;;;;16.10;14.40;;;;;;;14.09;85.05;98325.15;88164;1276;99528;-71
2022/09/11 08:44:28;;;;;;;14.90;13.50;;;;;;;14.08;85.18;98321.23;88428;1277;23077;-72
2022/09/11 08:46:39;;;;;;;17.60;15.10;;;;;;;14.05;84.92;98324.08;88249;1276;23021;-72
2022/09/11 08:49:07;;;;;;;26.80;15.20;;;;;;;14.03;85.33;98322.30;88188;1276;98323;-72
2022/09/11 08:51:15;;;;;;;17.10;15.20;;;;;;;14.02;85.22;98322.52;88291;1278;23177;-72
2022/09/11 08:53:18;;;;;;;20.30;14.30;;;;;;;14.03;85.52;98326.14;88118;1279;24699;-72
2022/09/11 08:55:39;;;;;;;17.40;15.60;;;;;;;14.05;85.35;98325.16;88177;1278;99805;-71
2022/09/11 08:57:59;;;;;;;17.90;15.70;;;;;;;14.08;85.41;98331.41;88264;1277;22599;-72
2022/09/11 09:00:19;;;;;;;16.50;14.50;;;;;;;14.10;85.59;98330.75;88155;1278;99566;-70
2022/09/11 09:02:42;;;;;;;16.90;15.00;;;;;;;14.11;85.45;98332.42;88170;1276;22536;-72
2022/09/11 09:05:14;;;;;;;16.90;15.20;;;;;;;14.14;85.40;98332.40;88212;1278;22571;-72
2022/09/11 09:07:36;;;;;;;20.00;16.10;;;;;;;14.19;85.62;98330.48;88170;1276;100259;-71
2022/09/11 09:09:49;;;;;;;21.40;15.20;;;;;;;14.24;85.67;98328.33;88081;1281;25521;-72
2022/09/11 09:12:09;;;;;;;28.20;16.30;;;;;;;14.29;85.67;98329.92;88162;1277;98521;-70
2022/09/11 09:14:53;;;;;;;17.80;16.20;;;;;;;14.35;85.69;98330.73;88314;1276;25258;-72
2022/09/11 09:17:01;;;;;;;16.70;15.20;;;;;;;14.41;85.73;98329.76;88186;1278;22634;-70
2022/09/11 09:19:20;;;;;;;19.70;15.30;;;;;;;14.47;85.88;98333.88;88055;1278;99994;-72
2022/09/11 09:21:30;;;;;;;15.40;13.80;;;;;;;14.52;85.75;98335.84;88216;1277;22572;-71
2022/09/11 09:23:41;;;;;;;17.00;15.50;;;;;;;14.57;85.55;98336.71;87978;1278;99915;-71
2022/09/11 09:25:43;;;;;;;;;;;;;;;14.60;85.61;98337.13;88167;1278;25315;-72
2022/09/11 09:27:48;;;;;;;18.60;13.50;;;;;;;14.62;85.57;98334.23;88228;1277;22602;-72
2022/09/11 09:29:56;;;;;;;14.10;12.90;;;;;;;14.67;85.70;98338.66;88145;1277;100051;-71
2022/09/11 09:32:14;;;;;;;15.50;13.90;;;;;;;14.70;85.42;98337.90;89196;1278;22626;-72
2022/09/11 09:34:23;;;;;;;14.80;12.40;;;;;;;14.73;85.55;98339.74;88227;1277;22579;-72
2022/09/11 09:36:45;;;;;;;14.50;13.20;;;;;;;14.76;85.52;98337.08;88075;1281;99745;-73
2022/09/11 09:38:48;;;;;;;14.10;11.10;;;;;;;14.79;85.37;98338.05;88166;1278;22724;-75
2022/09/11 09:41:19;;;;;;;13.90;12.00;;;;;;;14.82;85.48;98337.30;88217;1278;22504;-72
2022/09/11 09:43:49;;;;;;;16.80;12.50;;;;;;;14.85;85.46;98338.52;87751;1284;99355;-72